Time;durP1;ratioP1;P1;durP2;ratioP2;P2;SDS_P1;SDS_P2;PMS_P1;PMS_P2;Temp;Humidity;BMP_temperature;BMP_pressure;BME280_temperature;BME280_humidity;BME280_pressure;Samples;Min_cycle;Max_cycle;Signal;HPM_P1;HPM_P2
2022/10/11 00:01:17;;;;;;;22.67;12.82;;;2.60;99.90;;;2.45;100.00;100000.91;5079963;27;129734;-77
2022/10/11 00:03:45;;;;;;;25.70;12.93;;;2.50;99.90;;;2.43;100.00;100000.38;5080493;27;118866;-77
2022/10/11 00:06:14;;;;;;;23.83;12.77;;;2.50;99.90;;;2.40;100.00;99990.13;5081625;27;116109;-77
2022/10/11 00:08:44;;;;;;;22.83;13.00;;;2.50;99.90;;;2.37;100.00;99990.63;5085997;27;130124;-76
2022/10/11 00:11:12;;;;;;;21.20;12.05;;;2.40;99.90;;;2.32;100.00;99993.22;5079949;27;129896;-76
2022/10/11 00:13:41;;;;;;;24.30;12.55;;;2.30;99.90;;;2.29;100.00;99991.00;5079966;27;118700;-75
2022/10/11 00:16:12;;;;;;;22.45;12.23;;;2.20;99.90;;;2.25;100.00;99988.03;5078728;27;115763;-74
2022/10/11 00:18:41;;;;;;;21.02;13.15;;;2.20;99.90;;;2.21;100.00;99986.06;5077947;27;129985;-75
2022/10/11 00:21:16;;;;;;;25.50;12.88;;;2.20;99.90;;;2.19;100.00;99990.88;5077884;27;130508;-76
2022/10/11 00:23:58;;;;;;;19.95;12.50;;;2.20;99.90;;;2.16;100.00;99987.59;5108794;27;103402;-76
2022/10/11 00:26:27;;;;;;;24.58;13.43;;;2.10;99.90;;;2.17;100.00;99993.81;5083669;27;116046;-76
2022/10/11 00:28:55;;;;;;;25.83;13.57;;;2.10;99.90;;;2.16;100.00;99989.47;5085055;27;130642;-77
2022/10/11 00:31:24;;;;;;;25.58;14.10;;;2.10;99.90;;;2.15;100.00;99980.66;5071047;27;129359;-77
2022/10/11 00:33:54;;;;;;;28.25;13.82;;;2.20;99.90;;;2.14;100.00;99964.81;5087876;27;119499;-77
2022/10/11 00:36:23;;;;;;;26.33;14.18;;;2.20;99.90;;;2.08;100.00;99971.97;5085187;27;115856;-77
2022/10/11 00:38:52;;;;;;;22.05;12.13;;;2.10;99.90;;;2.08;100.00;99971.16;5080822;27;130478;-76
2022/10/11 00:41:22;;;;;;;23.77;13.18;;;1.90;99.90;;;2.04;100.00;99986.91;5087904;27;129491;-77
2022/10/11 00:44:15;;;;;;;29.17;13.13;;;1.90;99.90;;;1.99;100.00;99978.78;5112513;27;102253;-76
2022/10/11 00:46:52;;;;;;;24.48;12.48;;;1.80;99.90;;;1.95;100.00;99972.28;5077937;27;115859;-76
2022/10/11 00:49:59;;;;;;;22.33;12.88;;;1.80;99.90;;;1.85;100.00;99974.78;5078883;27;130452;-76
2022/10/11 00:52:32;;;;;;;26.85;12.85;;;1.80;99.90;;;1.84;100.00;99974.00;5058484;27;129179;-77
2022/10/11 00:55:07;;;;;;;27.27;13.32;;;1.80;99.90;;;1.80;100.00;99976.31;5041957;27;118428;-76
2022/10/11 00:57:42;;;;;;;23.75;13.63;;;1.70;99.90;;;1.77;100.00;99965.28;5041850;27;115363;-77
2022/10/11 01:00:16;;;;;;;21.95;12.32;;;1.80;99.90;;;1.76;100.00;99969.84;5041470;27;128717;-76
2022/10/11 01:02:45;;;;;;;26.20;14.02;;;1.80;99.90;;;1.78;100.00;99970.41;5055446;27;129710;-77
2022/10/11 01:05:16;;;;;;;27.25;14.55;;;1.80;99.90;;;1.79;100.00;99966.69;5056813;27;118842;-76
2022/10/11 01:07:47;;;;;;;22.10;13.73;;;1.80;99.90;;;1.79;100.00;99966.69;5062765;27;116567;-77
2022/10/11 01:10:16;;;;;;;28.02;13.73;;;1.90;99.90;;;1.78;100.00;99957.03;5062523;27;128472;-77
2022/10/11 01:12:59;;;;;;;22.08;12.60;;;1.90;99.90;;;1.78;100.00;99957.03;5084939;27;129536;-77
2022/10/11 01:15:35;;;;;;;28.30;14.80;;;2.00;99.90;;;1.83;100.00;99952.81;5082698;27;118676;-77
2022/10/11 01:18:14;;;;;;;27.00;12.82;;;2.00;99.90;;;1.88;100.00;99955.56;5086295;27;114329;-78
2022/10/11 01:20:53;;;;;;;25.63;14.93;;;2.10;99.90;;;1.91;100.00;99952.41;5079235;27;130845;-78
2022/10/11 01:24:06;;;;;;;22.23;13.52;;;2.10;99.90;;;1.95;100.00;99950.88;5078462;27;129519;-78
2022/10/11 01:27:33;;;;;;;23.58;12.68;;;2.20;99.90;;;1.94;100.00;99943.91;5080403;27;119239;-77
2022/10/11 01:30:27;;;;;;;25.40;14.10;;;2.10;99.90;;;1.92;100.00;99951.38;5078825;27;115824;-77
2022/10/11 01:33:21;;;;;;;30.20;15.07;;;2.10;99.90;;;1.90;100.00;99942.75;5063063;27;129391;-77
2022/10/11 01:35:59;;;;;;;28.33;14.27;;;2.10;99.90;;;1.84;100.00;99939.19;5078122;27;129890;-76
2022/10/11 01:38:36;;;;;;;27.05;14.00;;;2.00;99.90;;;1.81;100.00;99934.31;5078439;27;118681;-77
2022/10/11 01:41:08;;;;;;;;;;;1.90;99.90;;;1.71;100.00;99932.28;5079140;27;116747;-77
2022/10/11 01:43:54;;;;;;;26.40;13.30;;;1.80;99.90;;;1.73;100.00;99938.22;5107564;27;102968;-77
2022/10/11 01:46:37;;;;;;;25.70;14.47;;;1.80;99.90;;;1.73;100.00;99932.88;5106814;27;102440;-77
2022/10/11 01:49:21;;;;;;;27.67;14.33;;;1.80;99.90;;;1.73;100.00;99930.19;5106711;27;102490;-76
2022/10/11 01:52:07;;;;;;;27.40;15.53;;;1.80;99.90;;;1.69;100.00;99915.66;5106273;27;102799;-77
2022/10/11 01:55:10;;;;;;;25.33;14.40;;;1.80;99.90;;;1.65;100.00;99911.84;5107180;27;102918;-77
2022/10/11 01:58:13;;;;;;;24.70;14.10;;;1.80;99.90;;;1.68;100.00;99907.88;5106834;27;103102;-79
2022/10/11 02:01:08;;;;;;;29.73;14.87;;;1.80;99.90;;;1.73;100.00;99914.13;5107699;27;102879;-78
2022/10/11 02:04:01;;;;;;;25.90;14.20;;;1.80;99.90;;;1.76;100.00;99908.28;5111676;27;102864;-78
2022/10/11 02:06:55;;;;;;;27.07;14.70;;;1.90;99.90;;;1.78;100.00;99906.19;5110880;27;102563;-77
2022/10/11 02:09:46;;;;;;;31.47;15.60;;;1.90;99.90;;;1.74;100.00;99906.91;5113676;27;102902;-78
2022/10/11 02:12:24;;;;;;;27.00;14.32;;;1.80;99.90;;;1.73;100.00;99907.94;5091368;27;114636;-78
2022/10/11 02:14:56;;;;;;;27.88;15.57;;;1.90;99.90;;;1.73;100.00;99903.44;5090981;27;129880;-79
2022/10/11 02:17:44;;;;;;;24.50;13.23;;;1.80;99.90;;;1.75;100.00;99898.63;5118770;27;102940;-78
2022/10/11 02:20:29;;;;;;;20.08;12.98;;;1.70;99.90;;;1.76;100.00;99897.59;5121298;27;103133;-79
2022/10/11 02:23:04;;;;;;;22.90;12.57;;;1.70;99.90;;;1.77;100.00;99899.19;5091918;27;115841;-77
2022/10/11 02:25:36;;;;;;;19.50;11.98;;;1.80;99.90;;;1.78;100.00;99890.13;5093571;27;129777;-77
2022/10/11 02:28:22;;;;;;;22.30;11.98;;;1.80;99.90;;;1.83;100.00;99897.41;5118230;27;102494;-77
2022/10/11 02:31:07;;;;;;;21.07;10.77;;;1.80;99.90;;;1.88;100.00;99896.69;5111679;27;102827;-77
2022/10/11 02:33:59;;;;;;;21.25;11.55;;;1.90;99.90;;;1.92;100.00;99889.81;5113289;27;102538;-78
2022/10/11 02:36:51;;;;;;;17.43;11.20;;;2.00;99.90;;;1.94;100.00;99895.72;5107407;27;103083;-77
2022/10/11 02:39:42;;;;;;;20.97;10.77;;;2.00;99.90;;;1.93;100.00;99883.38;5087654;27;1463317;-78
2022/10/11 02:42:29;;;;;;;21.42;11.55;;;1.90;99.90;;;1.95;100.00;99887.44;5098330;27;102774;-77
2022/10/11 02:45:18;;;;;;;19.30;10.18;;;2.00;99.90;;;1.93;100.00;99886.88;5113913;27;102560;-77
2022/10/11 02:48:02;;;;;;;17.23;9.50;;;2.00;99.90;;;1.93;100.00;99888.72;5108121;27;102929;-76
2022/10/11 02:51:00;;;;;;;14.97;9.50;;;2.00;99.90;;;1.93;100.00;99881.53;5077751;27;102575;-77
2022/10/11 02:53:42;;;;;;;21.48;10.35;;;2.00;99.90;;;1.91;100.00;99878.25;5096189;27;102784;-78
2022/10/11 02:56:25;;;;;;;14.10;9.20;;;2.00;99.90;;;1.89;100.00;99877.72;5111353;27;102444;-79
2022/10/11 02:59:08;;;;;;;14.50;9.00;;;2.00;99.90;;;1.93;100.00;99873.50;5122144;27;102410;-77
2022/10/11 03:01:51;;;;;;;19.23;9.60;;;2.00;99.90;;;1.94;100.00;99872.41;5115408;27;102418;-77
2022/10/11 03:04:34;;;;;;;15.23;8.98;;;2.10;99.90;;;1.93;100.00;99870.00;5124257;27;102785;-78
2022/10/11 03:07:16;;;;;;;17.70;8.70;;;2.00;99.90;;;1.92;100.00;99876.41;5108179;27;102797;-77
2022/10/11 03:09:59;;;;;;;16.17;8.60;;;2.00;99.90;;;1.93;100.00;99878.03;5113101;27;102821;-79
2022/10/11 03:12:42;;;;;;;14.33;8.70;;;2.00;99.90;;;1.95;100.00;99871.38;5120057;27;102465;-76
2022/10/11 03:15:25;;;;;;;17.97;8.57;;;2.00;99.90;;;1.94;100.00;99868.94;5113292;27;103156;-76
2022/10/11 03:18:08;;;;;;;16.70;8.67;;;2.20;99.90;;;1.99;100.00;99877.03;5114114;27;102915;-75
2022/10/11 03:20:51;;;;;;;16.13;7.97;;;2.20;99.90;;;2.00;100.00;99865.28;5106256;27;103327;-75
2022/10/11 03:23:34;;;;;;;14.77;7.90;;;2.10;99.90;;;2.04;100.00;99868.28;5106351;27;102966;-77
2022/10/11 03:26:17;;;;;;;14.10;8.35;;;2.10;99.90;;;2.04;100.00;99868.28;5110796;27;102568;-79
2022/10/11 03:29:00;;;;;;;15.97;7.87;;;2.20;99.90;;;2.07;100.00;99862.44;5109783;27;103020;-78
2022/10/11 03:31:43;;;;;;;13.43;7.18;;;2.20;99.90;;;2.09;100.00;99866.50;5107535;27;102706;-76
2022/10/11 03:34:26;;;;;;;11.10;7.20;;;2.10;99.90;;;2.08;100.00;99859.50;5108166;27;102432;-76
2022/10/11 03:37:08;;;;;;;13.50;7.20;;;2.10;99.90;;;2.08;100.00;99859.50;5106672;27;102732;-75
2022/10/11 03:39:51;;;;;;;12.98;6.45;;;2.10;99.90;;;2.09;100.00;99850.44;5106575;27;102880;-77
2022/10/11 03:42:35;;;;;;;12.60;6.63;;;2.10;99.90;;;2.06;100.00;99850.91;5106318;27;102413;-76
2022/10/11 03:45:17;;;;;;;12.90;7.18;;;2.10;99.90;;;2.06;100.00;99842.88;5105869;27;103005;-77
2022/10/11 03:48:00;;;;;;;12.83;6.83;;;2.10;99.90;;;2.11;100.00;99842.16;5106339;27;102554;-76
2022/10/11 03:50:43;;;;;;;14.37;6.60;;;2.20;99.90;;;2.10;100.00;99841.34;5106363;27;102553;-78
2022/10/11 03:53:26;;;;;;;12.73;7.03;;;2.30;99.90;;;2.13;100.00;99842.69;5106614;27;102781;-75
2022/10/11 03:56:09;;;;;;;11.87;6.13;;;2.40;99.90;;;2.15;100.00;99854.78;5106434;27;102912;-76
2022/10/11 03:58:51;;;;;;;11.40;6.72;;;2.30;99.90;;;2.13;100.00;99843.50;5089209;27;102921;-77
2022/10/11 04:01:37;;;;;;;13.65;7.53;;;2.30;99.90;;;2.15;100.00;99844.09;5106151;27;102784;-75
2022/10/11 04:04:19;;;;;;;13.70;7.10;;;2.30;99.90;;;2.12;100.00;99847.25;5103070;27;102875;-76
2022/10/11 04:07:03;;;;;;;14.45;8.35;;;2.20;99.90;;;2.05;100.00;99846.59;5106041;27;102785;-76
2022/10/11 04:09:47;;;;;;;10.67;6.33;;;2.20;99.90;;;2.03;100.00;99845.25;5106182;27;102884;-76
2022/10/11 04:12:30;;;;;;;12.20;6.68;;;2.20;99.90;;;2.01;100.00;99840.16;5105966;27;102336;-76
2022/10/11 04:15:17;;;;;;;12.17;6.33;;;2.20;99.90;;;2.00;100.00;99846.53;5084664;27;102702;-77
2022/10/11 04:18:00;;;;;;;13.20;5.78;;;2.20;99.90;;;2.04;100.00;99842.34;5108554;27;102592;-79
2022/10/11 04:20:43;;;;;;;10.52;5.03;;;2.20;99.90;;;2.13;100.00;99840.81;5107366;27;102916;-76
2022/10/11 04:23:28;;;;;;;11.90;5.90;;;2.40;99.90;;;2.23;100.00;99839.34;5106297;27;102681;-76
2022/10/11 04:26:14;;;;;;;9.87;4.90;;;2.40;99.90;;;2.32;100.00;99843.22;5106040;27;102417;-76
2022/10/11 04:28:57;;;;;;;9.97;4.30;;;2.60;99.90;;;2.50;100.00;99834.88;5065136;27;102994;-76
2022/10/11 04:31:39;;;;;;;8.43;5.00;;;2.90;99.90;;;2.66;100.00;99827.81;5104494;27;102939;-74
2022/10/11 04:34:23;;;;;;;6.73;3.50;;;3.10;99.90;;;2.86;100.00;99834.47;5106296;27;102632;-75
2022/10/11 04:37:06;;;;;;;8.60;3.50;;;3.40;99.90;;;3.02;100.00;99830.06;5105694;27;102613;-73
2022/10/11 04:39:48;;;;;;;8.30;4.30;;;3.50;99.90;;;3.12;100.00;99829.38;5105579;27;102527;-75
2022/10/11 04:42:31;;;;;;;7.80;3.27;;;3.40;99.90;;;3.22;100.00;99830.25;5105923;27;102685;-74
2022/10/11 04:45:15;;;;;;;6.27;3.10;;;3.50;99.90;;;3.32;100.00;99834.09;5106221;27;103385;-76
2022/10/11 04:47:58;;;;;;;6.53;3.53;;;3.50;99.90;;;3.39;100.00;99837.38;5106040;27;102408;-76
2022/10/11 04:50:41;;;;;;;7.67;3.57;;;3.60;99.90;;;3.44;100.00;99831.25;5105694;27;103022;-75
2022/10/11 04:53:25;;;;;;;5.63;3.05;;;3.60;99.90;;;3.56;100.00;99824.63;5106328;27;102603;-76
2022/10/11 04:56:10;;;;;;;6.37;3.27;;;3.70;99.90;;;3.64;100.00;99827.94;5106457;27;103409;-73
2022/10/11 04:58:53;;;;;;;6.43;3.30;;;3.80;99.90;;;3.75;100.00;99821.56;5106175;27;102472;-77
2022/10/11 05:01:36;;;;;;;7.72;4.13;;;3.90;99.90;;;3.88;100.00;99818.44;5106196;27;103097;-73
2022/10/11 05:04:18;;;;;;;7.23;3.27;;;4.00;97.80;;;3.96;100.00;99812.56;5104632;27;102937;-73
2022/10/11 05:07:02;;;;;;;6.57;3.30;;;4.10;88.10;;;4.09;100.00;99815.84;5106123;27;102851;-74
2022/10/11 05:09:44;;;;;;;7.63;3.50;;;4.20;85.20;;;4.23;100.00;99808.94;5105742;27;102717;-76
2022/10/11 05:12:28;;;;;;;9.93;3.80;;;4.30;74.10;;;4.37;100.00;99806.59;5106721;27;102584;-73
2022/10/11 05:15:11;;;;;;;11.23;3.50;;;4.30;68.30;;;4.50;100.00;99805.28;5106643;27;102860;-74
2022/10/11 05:17:55;;;;;;;13.07;3.70;;;4.40;53.60;;;4.62;100.00;99797.78;5106406;27;102654;-75
2022/10/11 05:20:37;;;;;;;7.70;3.53;;;4.50;56.10;;;4.73;100.00;99792.47;5106280;27;103258;-74
2022/10/11 05:23:20;;;;;;;9.47;4.03;;;4.60;53.70;;;4.82;100.00;99785.50;5106022;27;103015;-73
2022/10/11 05:26:04;;;;;;;8.00;4.30;;;4.70;39.80;;;4.86;100.00;99789.25;5106476;27;102848;-72
2022/10/11 05:28:47;;;;;;;7.93;4.60;;;4.70;35.90;;;4.94;100.00;99788.75;5106414;27;102762;-74
2022/10/11 05:31:31;;;;;;;10.30;4.90;;;4.80;35.40;;;5.13;100.00;99785.53;5106418;27;102551;-74
2022/10/11 05:34:13;;;;;;;9.07;4.40;;;4.90;34.20;;;5.31;100.00;99782.28;5106275;27;103465;-73
2022/10/11 05:36:56;;;;;;;8.07;4.00;;;5.10;22.90;;;5.47;99.86;99784.97;5106532;27;102909;-75
2022/10/11 05:39:39;;;;;;;6.97;4.33;;;5.30;12.40;;;5.63;98.75;99778.50;5106601;27;102534;-72
2022/10/11 05:42:22;;;;;;;6.73;3.50;;;5.40;1.00;;;5.74;97.62;99776.59;5106122;27;102486;-73
2022/10/11 05:45:06;;;;;;;8.17;3.90;;;5.50;1.00;;;5.89;95.74;99781.13;5105978;27;102501;-73
2022/10/11 05:47:50;;;;;;;9.43;4.57;;;5.70;1.00;;;6.03;94.05;99776.00;5105879;27;102958;-71
2022/10/11 05:50:33;;;;;;;12.60;4.27;;;5.80;1.00;;;6.20;93.60;99781.06;5104718;27;102990;-73
2022/10/11 05:53:15;;;;;;;10.13;4.80;;;5.90;1.00;;;6.35;91.25;99785.63;5106139;27;102853;-73
2022/10/11 05:55:59;;;;;;;10.27;4.00;;;6.00;1.00;;;6.45;90.47;99778.28;5106673;27;102881;-74
2022/10/11 05:58:42;;;;;;;5.63;3.83;;;6.10;1.00;;;6.52;90.34;99771.78;5106511;27;102668;-73
2022/10/11 06:01:26;;;;;;;10.53;4.57;;;6.20;1.00;;;6.58;89.47;99771.47;5106314;27;102323;-71
2022/10/11 06:04:10;;;;;;;6.83;3.77;;;6.20;1.00;;;6.67;89.35;99771.72;5106387;27;103518;-74
2022/10/11 06:06:53;;;;;;;8.50;3.70;;;6.30;1.00;;;6.78;87.74;99767.84;5106137;27;102802;-74
2022/10/11 06:09:37;;;;;;;12.23;3.90;;;6.40;1.00;;;6.91;87.33;99779.13;5105603;27;102571;-72
2022/10/11 06:12:20;;;;;;;7.53;3.37;;;6.40;1.00;;;6.91;86.69;99763.72;5106429;27;103139;-73
2022/10/11 06:15:20;;;;;;;8.00;3.27;;;6.50;1.00;;;7.07;85.55;99767.09;5105210;27;102737;-73
2022/10/11 06:18:16;;;;;;;6.50;3.20;;;6.60;1.00;;;7.24;85.64;99771.31;5064264;27;102425;-72
2022/10/11 06:21:17;;;;;;;4.77;2.60;;;6.70;1.00;;;7.27;84.11;99770.75;5148275;27;102806;-75
2022/10/11 06:24:18;;;;;;;7.10;3.00;;;6.80;1.00;;;7.43;83.20;99761.41;5129040;27;102384;-73
2022/10/11 06:27:18;;;;;;;5.80;2.80;;;6.90;1.00;;;7.47;83.12;99765.16;5126836;27;102606;-73
2022/10/11 06:30:20;;;;;;;5.87;2.70;;;7.00;1.00;;;7.57;82.66;99764.25;5085685;27;102483;-72
2022/10/11 06:33:21;;;;;;;9.93;3.30;;;7.10;1.00;;;7.79;80.67;99752.97;5147928;27;102506;-73
2022/10/11 06:36:27;;;;;;;5.33;3.00;;;7.30;1.00;;;7.90;80.54;99757.19;5065145;27;102634;-72
2022/10/11 06:39:33;;;;;;;6.27;2.80;;;7.40;1.00;;;8.12;80.49;99753.16;5085107;27;102775;-73
2022/10/11 06:42:33;;;;;;;5.67;2.53;;;7.60;1.00;;;8.17;79.22;99758.50;5147577;27;102460;-73
2022/10/11 06:45:43;;;;;;;7.63;2.77;;;7.60;1.00;;;8.36;79.04;99757.72;5084826;27;102460;-72
2022/10/11 06:48:47;;;;;;;5.20;2.60;;;7.80;1.00;;;8.56;77.53;99765.59;5064369;27;102688;-73
2022/10/11 06:51:46;;;;;;;8.13;3.07;;;7.90;1.00;;;8.51;77.37;99754.84;5084136;27;102512;-72
2022/10/11 06:54:55;;;;;;;5.27;2.67;;;7.90;1.00;;;8.68;77.43;99753.53;5095235;27;102357;-72
2022/10/11 06:57:51;;;;;;;7.33;3.27;;;8.00;1.00;;;8.76;76.88;99739.38;5084772;27;102275;-72
2022/10/11 07:01:04;;;;;;;5.27;2.80;;;8.10;1.00;;;8.82;76.48;99749.00;5084706;27;103410;-72
2022/10/11 07:04:07;;;;;;;6.43;2.83;;;8.20;1.00;;;8.93;76.57;99744.25;5064719;27;103024;-73
2022/10/11 07:07:07;;;;;;;7.53;3.20;;;8.30;1.00;;;9.22;75.86;99741.31;5063319;27;102338;-72
2022/10/11 07:10:02;;;;;;;6.80;3.43;;;8.50;1.00;;;9.42;75.57;99744.81;5063942;27;102500;-74
2022/10/11 07:13:10;;;;;;;6.87;2.70;;;8.60;1.00;;;9.56;73.98;99734.00;5084557;27;102478;-73
2022/10/11 07:16:13;;;;;;;9.43;2.83;;;8.70;1.00;;;9.57;73.16;99736.41;5147986;27;102287;-72
2022/10/11 07:19:15;;;;;;;6.13;2.80;;;8.70;1.00;;;9.70;73.25;99732.09;5091964;27;102517;-71
2022/10/11 07:22:29;;;;;;;7.17;3.10;;;8.80;1.00;;;9.84;72.45;99741.03;5071391;27;102472;-72
2022/10/11 07:25:38;;;;;;;6.33;2.67;;;9.00;1.00;;;9.92;72.28;99731.41;5084947;27;102606;-72
2022/10/11 07:28:38;;;;;;;5.40;2.53;;;9.10;1.00;;;9.81;71.39;99738.13;5105065;27;102489;-73
2022/10/11 07:31:41;;;;;;;9.37;3.03;;;9.10;1.00;;;10.01;72.09;99729.59;5147755;27;102547;-70
2022/10/11 07:34:40;;;;;;;5.60;2.60;;;9.20;1.00;;;10.19;70.96;99730.59;5064097;27;102831;-72
2022/10/11 07:37:39;;;;;;;5.43;2.27;;;9.30;1.00;;;10.23;70.62;99741.63;5064283;27;102830;-73
2022/10/11 07:40:44;;;;;;;5.43;2.50;;;9.40;1.00;;;10.15;70.06;99736.94;5084595;27;102399;-71
2022/10/11 07:43:42;;;;;;;5.90;2.73;;;9.40;1.00;;;10.31;70.04;99749.06;5063933;27;102367;-70
2022/10/11 07:46:42;;;;;;;8.73;2.77;;;9.50;1.00;;;10.45;69.35;99743.63;5147539;27;102828;-72
2022/10/11 07:49:42;;;;;;;6.83;3.20;;;9.70;1.00;;;10.82;68.94;99730.88;5084849;27;102452;-74
2022/10/11 07:52:53;;;;;;;7.32;2.85;;;10.00;1.00;;;11.21;67.08;99744.91;5101892;27;102747;-71
2022/10/11 07:55:53;;;;;;;6.77;3.03;;;10.00;1.00;;;11.26;66.52;99744.78;5064372;27;102862;-73
2022/10/11 07:59:05;;;;;;;5.93;3.03;;;10.00;1.00;;;11.36;65.30;99743.72;5103508;27;103007;-73
2022/10/11 08:02:01;;;;;;;7.83;2.90;;;10.20;1.00;;;11.25;66.31;99724.13;5051737;27;102857;-74
2022/10/11 08:04:57;;;;;;;8.37;2.60;;;10.10;1.00;;;11.17;66.30;99727.63;5064551;27;102806;-74
2022/10/11 08:07:58;;;;;;;7.80;2.70;;;10.20;1.00;;;11.45;65.10;99717.38;5147629;27;102735;-74
2022/10/11 08:11:09;;;;;;;5.47;3.00;;;10.40;1.00;;;11.78;65.10;99707.00;5084136;27;102737;-74
2022/10/11 08:14:12;;;;;;;5.67;2.80;;;10.60;1.00;;;12.01;63.99;99709.66;5084716;27;102512;-70
2022/10/11 08:17:14;;;;;;;6.13;2.50;;;10.80;1.00;;;12.17;63.46;99707.28;5063770;27;103170;-70
2022/10/11 08:20:13;;;;;;;5.37;2.60;;;11.00;1.00;;;12.04;63.37;99706.28;5147986;27;102588;-72
2022/10/11 08:23:20;;;;;;;6.90;2.23;;;10.90;1.00;;;12.33;63.71;99699.50;5081968;27;102727;-72
2022/10/11 08:26:16;;;;;;;5.00;2.57;;;11.20;1.00;;;12.67;62.27;99703.31;5084277;27;102522;-73
2022/10/11 08:29:20;;;;;;;6.73;2.40;;;11.40;1.00;;;12.80;61.43;99691.47;5085117;27;103293;-72
2022/10/11 08:32:17;;;;;;;7.47;2.50;;;11.50;1.00;;;12.94;62.12;99692.09;5088252;27;102971;-75
2022/10/11 08:35:18;;;;;;;8.57;2.33;;;11.70;1.00;;;13.16;61.15;99684.84;5148008;27;102964;-74
2022/10/11 08:38:29;;;;;;;6.20;2.60;;;11.80;1.00;;;13.21;60.20;99684.69;5084894;27;102377;-75
2022/10/11 08:41:46;;;;;;;6.63;3.00;;;11.80;1.00;;;13.28;60.25;99682.25;5095667;27;102481;-73
2022/10/11 08:45:07;;;;;;;9.73;3.78;;;11.90;1.00;;;13.48;58.47;99683.53;5084786;27;102448;-74
2022/10/11 08:48:21;;;;;;;8.67;3.80;;;12.00;1.00;;;13.65;58.81;99671.75;5084966;27;102806;-74
2022/10/11 08:50:53;;;;;;;10.80;4.25;;;12.30;1.00;;;13.47;58.72;99670.22;5059756;27;113491;-73
2022/10/11 08:53:36;;;;;;;9.07;3.92;;;12.30;1.00;;;13.86;58.85;99665.53;5058781;27;129814;-74
2022/10/11 08:56:05;;;;;;;11.05;3.83;;;12.50;1.00;;;14.00;56.72;99655.19;5058748;27;130057;-73
2022/10/11 08:58:41;;;;;;;9.55;3.67;;;12.60;1.00;;;13.57;57.47;99664.41;5058984;27;118584;-75
2022/10/11 09:01:19;;;;;;;8.73;2.80;;;12.30;1.00;;;13.13;58.60;99666.44;5058926;27;113739;-74
2022/10/11 09:03:49;;;;;;;7.10;2.30;;;12.10;1.00;;;12.97;58.98;99662.63;5058297;27;129944;-74
2022/10/11 09:06:32;;;;;;;6.45;2.00;;;11.80;1.00;;;12.70;57.97;99665.38;5058450;27;129561;-74
2022/10/11 09:09:33;;;;;;;8.07;2.35;;;11.60;1.00;;;12.82;58.42;99651.09;5058628;27;118640;-73
2022/10/11 09:12:18;;;;;;;4.55;1.90;;;11.90;1.00;;;13.14;57.42;99651.69;5058718;27;114164;-74
2022/10/11 09:15:20;;;;;;;5.13;1.77;;;12.20;1.00;;;13.10;56.10;99651.56;5043529;27;129501;-73
2022/10/11 09:18:22;;;;;;;5.25;1.70;;;12.10;1.00;;;13.31;55.68;99640.72;5058315;27;129751;-72
2022/10/11 09:21:07;;;;;;;6.78;2.30;;;12.30;1.00;;;14.26;53.93;99646.03;5058520;27;118577;-72
2022/10/11 09:23:59;;;;;;;5.32;1.92;;;13.00;1.00;;;14.57;54.36;99645.63;5058782;27;113789;-72
2022/10/11 09:26:35;;;;;;;4.85;2.00;;;13.30;1.00;;;15.10;52.34;99635.00;5060064;27;129946;-74
2022/10/11 09:29:15;;;;;;;6.43;2.08;;;13.70;1.00;;;15.50;50.87;99632.78;5058048;27;129860;-73
2022/10/11 09:31:48;;;;;;;4.63;1.70;;;13.90;1.00;;;15.69;48.97;99622.09;5058082;27;118776;-74
2022/10/11 09:34:18;;;;;;;4.65;1.80;;;14.00;1.00;;;15.55;48.29;99613.41;5058876;27;113610;-72
2022/10/11 09:36:57;;;;;;;4.45;1.80;;;13.90;1.00;;;14.99;47.26;99602.97;5058444;27;129489;-73
2022/10/11 09:39:31;;;;;;;5.32;2.13;;;13.70;1.00;;;14.94;48.72;99603.19;5058101;27;130207;-75
2022/10/11 09:42:02;;;;;;;7.72;2.05;;;13.40;1.00;;;15.15;49.38;99619.53;5058501;27;118704;-72
2022/10/11 09:44:36;;;;;;;6.97;1.80;;;13.60;1.00;;;15.33;49.00;99618.16;5058433;27;113652;-71
2022/10/11 09:47:06;;;;;;;5.07;1.88;;;13.80;1.00;;;15.60;47.80;99613.19;5059176;27;129086;-74
2022/10/11 09:49:40;;;;;;;4.63;2.28;;;14.00;1.00;;;15.41;47.65;99611.81;5057791;27;129283;-73
2022/10/11 09:52:18;;;;;;;4.82;1.70;;;13.90;1.00;;;15.37;46.99;99608.16;5058336;27;119550;-74
2022/10/11 09:54:49;;;;;;;7.10;1.90;;;13.90;1.00;;;15.48;46.32;99610.44;5058417;27;113605;-73
2022/10/11 09:57:24;;;;;;;7.03;1.88;;;14.00;1.00;;;15.37;47.10;99602.69;5054732;27;130388;-74
2022/10/11 10:00:02;;;;;;;4.03;2.00;;;13.80;1.00;;;15.05;48.25;99615.28;5044328;27;129667;-72
2022/10/11 10:02:43;;;;;;;5.15;1.90;;;13.70;1.00;;;15.22;48.08;99614.28;5044137;27;118688;-73
2022/10/11 10:05:19;;;;;;;3.72;1.90;;;13.80;1.00;;;15.12;49.42;99615.53;5045192;27;113673;-72
2022/10/11 10:08:24;;;;;;;6.22;2.53;;;13.70;1.00;;;15.34;48.61;99608.84;5043800;27;130509;-77
2022/10/11 10:11:02;;;;;;;7.13;2.00;;;13.90;1.00;;;15.42;48.36;99613.41;5046393;27;129012;-74
2022/10/11 10:13:45;;;;;;;4.70;1.98;;;14.00;1.00;;;15.44;48.54;99616.59;5044438;27;118888;-73
2022/10/11 10:16:27;;;;;;;4.28;2.10;;;14.00;1.00;;;15.42;47.77;99610.66;5044418;27;113522;-72
2022/10/11 10:18:59;;;;;;;4.22;2.10;;;13.80;1.00;;;15.18;49.13;99602.47;5044387;27;130306;-72
2022/10/11 10:21:31;;;;;;;4.43;1.80;;;13.70;1.00;;;15.18;48.74;99613.41;5043615;27;129922;-76
2022/10/11 10:24:07;;;;;;;3.50;1.63;;;13.70;1.00;;;15.25;48.79;99602.69;5044060;27;118403;-74
2022/10/11 10:26:36;;;;;;;6.45;1.95;;;13.70;1.00;;;15.42;48.82;99602.47;5044055;27;113685;-75
2022/10/11 10:29:18;;;;;;;3.88;1.75;;;13.80;1.00;;;15.28;49.23;99596.53;5043715;27;130258;-71
2022/10/11 10:31:56;;;;;;;4.55;1.88;;;13.80;1.00;;;15.78;48.82;99598.16;5043246;27;129367;-73
2022/10/11 10:34:29;;;;;;;4.53;2.03;;;14.20;1.00;;;15.93;49.18;99588.44;5044047;27;118436;-73
2022/10/11 10:37:07;;;;;;;5.55;2.35;;;14.30;1.00;;;16.11;48.49;99594.44;5045761;27;113047;-74
2022/10/11 10:39:42;;;;;;;5.38;2.08;;;14.60;1.00;;;15.99;47.49;99598.00;5043474;27;129876;-71
2022/10/11 10:42:16;;;;;;;7.57;3.05;;;14.40;1.00;;;15.99;48.27;99586.28;5043317;27;129486;-73
2022/10/11 10:44:52;;;;;;;4.38;1.90;;;14.40;1.00;;;15.92;48.21;99597.00;5044018;27;118713;-73
2022/10/11 10:47:58;;;;;;;8.00;2.50;;;14.30;1.00;;;15.94;47.66;99586.47;5046627;27;113684;-73
2022/10/11 10:50:32;;;;;;;6.80;2.20;;;14.30;1.00;;;15.75;47.48;99574.19;5045207;27;129223;-75
2022/10/11 10:53:18;;;;;;;6.32;2.25;;;14.10;1.00;;;15.60;48.81;99583.88;5043535;27;129877;-73
2022/10/11 10:55:54;;;;;;;8.77;5.45;;;14.10;1.00;;;15.57;48.82;99567.38;5045935;27;118299;-73
2022/10/11 10:58:39;;;;;;;;;;;14.10;1.00;;;15.32;48.76;99567.38;5046178;27;113306;-71
2022/10/11 11:01:16;;;;;;;6.07;3.08;;;14.00;1.00;;;15.76;50.32;99562.09;5043345;27;131695;-73
2022/10/11 11:03:53;;;;;;;7.93;3.83;;;14.20;1.00;;;15.73;50.10;99562.78;5042945;27;130052;-74
2022/10/11 11:06:30;;;;;;;4.68;2.28;;;14.30;1.00;;;15.70;49.26;99555.25;5043643;27;118740;-72
2022/10/11 11:09:23;;;;;;;4.35;1.95;;;14.20;1.00;;;15.33;49.88;99559.97;5042959;27;113419;-74
2022/10/11 11:12:07;;;;;;;6.40;3.05;;;14.00;1.00;;;15.44;51.67;99550.97;5043053;27;129875;-73
2022/10/11 11:15:02;;;;;;;6.25;3.40;;;14.10;1.00;;;15.84;50.95;99537.72;5044694;27;129194;-73
2022/10/11 11:17:50;;;;;;;7.28;3.20;;;14.40;1.00;;;15.91;48.67;99546.94;5043169;27;118874;-74
2022/10/11 11:20:33;;;;;;;11.10;3.10;;;14.40;1.00;;;15.74;49.28;99537.03;5045285;27;113133;-74
2022/10/11 11:23:18;;;;;;;6.10;2.63;;;14.30;1.00;;;15.44;50.33;99539.22;5041823;27;130144;-75
2022/10/11 11:25:56;;;;;;;12.02;8.25;;;14.10;1.00;;;15.57;50.53;99540.03;5042582;27;129404;-72
2022/10/11 11:29:01;;;;;;;6.47;3.42;;;14.10;1.00;;;15.91;50.05;99536.00;5043042;27;118627;-73
2022/10/11 11:32:02;;;;;;;101.70;68.22;;;14.50;1.00;;;15.97;49.61;99540.09;5043130;27;113392;-73
2022/10/11 11:34:37;;;;;;;9.57;3.50;;;14.50;1.00;;;15.94;49.28;99534.50;5042292;27;130649;-73
2022/10/11 11:37:15;;;;;;;6.38;2.58;;;14.50;1.00;;;15.82;50.23;99527.91;5044451;27;128938;-75